Time;durP1;ratioP1;P1;durP2;ratioP2;P2;SDS_P1;SDS_P2;PMS_P1;PMS_P2;Temp;Humidity;BMP_temperature;BMP_pressure;BME280_temperature;BME280_humidity;BME280_pressure;Samples;Min_cycle;Max_cycle;Signal;HPM_P1;HPM_P2
2022/06/05 00:03:34;;;;;;;8.93;8.33;;;20.10;99.90;;;;;;10343803;28;20229;-82
2022/06/05 00:09:02;;;;;;;7.70;7.20;;;20.20;99.90;;;;;;10346542;28;20210;-82
2022/06/05 00:14:04;;;;;;;9.40;8.50;;;20.10;99.90;;;;;;10377307;28;20284;-80
2022/06/05 00:19:06;;;;;;;9.70;8.80;;;20.10;99.90;;;;;;10372193;28;20221;-82
2022/06/05 00:24:10;;;;;;;8.80;8.20;;;20.10;99.90;;;;;;10357051;28;20288;-81
2022/06/05 00:29:25;;;;;;;9.50;8.80;;;20.10;99.90;;;;;;10375531;28;20285;-82
2022/06/05 00:34:27;;;;;;;9.20;8.50;;;20.10;99.90;;;;;;10366637;28;20301;-83
2022/06/05 00:39:45;;;;;;;9.90;8.53;;;20.10;99.90;;;;;;10374518;28;20246;-80
2022/06/05 00:44:51;;;;;;;9.80;8.80;;;20.10;99.90;;;;;;10388256;28;20687;-80
2022/06/05 00:49:58;;;;;;;9.80;9.00;;;20.10;99.90;;;;;;10357154;28;20234;-81
2022/06/05 00:55:02;;;;;;;8.33;7.73;;;20.10;99.90;;;;;;10375467;28;20265;-81
2022/06/05 01:00:09;;;;;;;8.93;8.33;;;20.10;99.90;;;;;;10353738;28;20595;-81
2022/06/05 01:05:13;;;;;;;8.87;8.27;;;20.00;99.90;;;;;;10367099;28;20249;-82
2022/06/05 01:10:18;;;;;;;8.87;8.27;;;20.00;99.90;;;;;;10374792;28;20219;-83
2022/06/05 01:15:29;;;;;;;8.70;8.10;;;20.10;99.90;;;;;;10353095;28;20721;-80
2022/06/05 01:20:41;;;;;;;8.87;8.23;;;20.00;99.90;;;;;;10376076;28;20202;-83
2022/06/05 01:25:56;;;;;;;9.27;8.57;;;20.00;99.90;;;;;;10370268;28;20655;-82
2022/06/05 01:31:05;;;;;;;9.93;8.87;;;19.90;99.90;;;;;;10359927;28;20242;-80
2022/06/05 01:36:14;;;;;;;9.13;8.53;;;19.90;99.90;;;;;;10354988;28;20249;-83
2022/06/05 01:41:24;;;;;;;8.93;8.23;;;19.90;99.90;;;;;;10376702;28;20238;-83
2022/06/05 01:46:33;;;;;;;8.97;8.37;;;19.90;99.90;;;;;;10354097;28;20222;-83
2022/06/05 01:51:42;;;;;;;9.70;9.07;;;19.90;99.90;;;;;;10365809;28;20222;-82
2022/06/05 01:56:49;;;;;;;9.70;9.00;;;19.80;99.90;;;;;;10375223;28;20202;-81
2022/06/05 02:01:57;;;;;;;9.30;8.70;;;19.80;99.90;;;;;;10366867;28;20251;-80
2022/06/05 02:07:05;;;;;;;10.10;9.40;;;19.80;99.90;;;;;;10359085;28;20284;-81
2022/06/05 02:12:10;;;;;;;9.23;8.53;;;19.80;99.90;;;;;;10354944;28;20257;-80
2022/06/05 02:17:12;;;;;;;9.50;8.80;;;19.70;99.90;;;;;;10369337;28;20748;-83
2022/06/05 02:22:21;;;;;;;10.50;9.70;;;19.60;99.90;;;;;;10354690;28;20234;-81
2022/06/05 02:27:26;;;;;;;9.97;9.27;;;19.60;99.90;;;;;;10356385;28;20577;-81
2022/06/05 02:32:39;;;;;;;10.60;9.80;;;19.60;99.90;;;;;;10357307;28;20210;-82
2022/06/05 02:37:55;;;;;;;9.83;9.13;;;19.60;99.90;;;;;;10382016;28;20198;-78
2022/06/05 02:43:05;;;;;;;11.27;10.47;;;19.70;99.90;;;;;;10347596;28;20230;-80
2022/06/05 02:48:11;;;;;;;11.97;11.07;;;19.80;99.90;;;;;;10363734;28;20293;-79
2022/06/05 02:53:15;;;;;;;11.27;10.37;;;19.90;99.90;;;;;;10350854;28;20217;-80
2022/06/05 02:58:18;;;;;;;10.87;10.07;;;19.90;99.90;;;;;;10374377;28;20714;-82
2022/06/05 03:03:29;;;;;;;10.00;9.23;;;20.00;99.90;;;;;;10375478;28;20218;-81
2022/06/05 03:08:31;;;;;;;10.23;9.57;;;20.10;99.90;;;;;;10359636;28;20248;-80
2022/06/05 03:13:35;;;;;;;9.80;9.10;;;20.10;99.90;;;;;;10350206;28;20245;-79
2022/06/05 03:18:38;;;;;;;10.97;10.17;;;20.00;99.90;;;;;;10353192;28;20202;-81
2022/06/05 03:23:40;;;;;;;11.30;10.37;;;20.10;99.90;;;;;;10365677;28;20222;-83
2022/06/05 03:28:44;;;;;;;10.60;9.70;;;20.00;99.90;;;;;;10355889;28;20230;-82
2022/06/05 03:33:46;;;;;;;10.83;10.03;;;20.00;99.90;;;;;;10355770;28;20222;-83
2022/06/05 03:38:48;;;;;;;10.20;9.50;;;20.00;99.90;;;;;;10345550;28;20626;-85
2022/06/05 03:43:52;;;;;;;9.10;8.50;;;20.00;99.90;;;;;;10353951;28;20218;-81
2022/06/05 03:48:54;;;;;;;10.43;9.47;;;20.00;99.90;;;;;;10371538;28;20257;-81
2022/06/05 03:53:56;;;;;;;10.53;9.63;;;20.00;99.90;;;;;;10345396;28;20302;-84
2022/06/05 03:59:00;;;;;;;10.13;9.33;;;20.10;99.90;;;;;;10357282;28;20208;-83
2022/06/05 04:04:02;;;;;;;11.80;10.90;;;20.10;99.90;;;;;;10379262;28;20301;-83
2022/06/05 04:09:07;;;;;;;12.20;11.30;;;20.10;99.90;;;;;;10377281;28;20209;-84
2022/06/05 04:14:11;;;;;;;11.10;10.27;;;19.90;99.90;;;;;;10372731;28;20230;-83
2022/06/05 04:19:13;;;;;;;12.70;11.70;;;20.00;99.90;;;;;;10365020;28;20252;-85
2022/06/05 04:24:16;;;;;;;12.27;11.27;;;19.90;99.90;;;;;;10374608;28;20233;-81
2022/06/05 04:29:20;;;;;;;12.50;11.60;;;19.90;99.90;;;;;;10361493;28;20202;-81
2022/06/05 04:34:23;;;;;;;13.50;12.50;;;19.80;99.90;;;;;;10356508;28;20229;-80
2022/06/05 04:39:25;;;;;;;13.53;12.57;;;19.80;99.90;;;;;;10380170;28;20619;-80
2022/06/05 04:44:29;;;;;;;13.00;12.10;;;19.60;99.90;;;;;;10369903;28;20234;-80
2022/06/05 04:49:32;;;;;;;13.07;12.17;;;19.60;99.90;;;;;;10372172;28;20256;-80
2022/06/05 04:54:34;;;;;;;13.93;12.93;;;19.60;99.90;;;;;;10360960;28;20242;-80
2022/06/05 04:59:37;;;;;;;17.37;15.97;;;19.50;99.90;;;;;;10374466;28;20678;-81
2022/06/05 05:04:40;;;;;;;16.83;15.53;;;19.50;99.90;;;;;;10370286;28;20230;-80
2022/06/05 05:09:42;;;;;;;15.93;14.70;;;19.50;99.90;;;;;;10355083;28;20721;-81
2022/06/05 05:14:46;;;;;;;18.03;16.60;;;19.50;99.90;;;;;;10358434;28;20234;-80
2022/06/05 05:19:48;;;;;;;18.03;16.27;;;19.40;99.90;;;;;;10352382;28;20629;-80
2022/06/05 05:24:50;;;;;;;19.87;18.37;;;19.40;99.90;;;;;;10366382;28;20254;-80
2022/06/05 05:29:53;;;;;;;18.17;16.77;;;19.40;99.90;;;;;;10365868;28;20221;-81
2022/06/05 05:34:55;;;;;;;20.57;18.90;;;19.40;99.90;;;;;;10362492;28;20225;-82
2022/06/05 05:45:19;;;;;;;21.17;19.67;;;19.30;99.90;;;;;;10377001;28;20241;-85
2022/06/05 05:50:21;;;;;;;21.13;19.43;;;19.20;99.90;;;;;;10370223;28;20201;-82
2022/06/05 05:55:23;;;;;;;21.03;19.37;;;19.20;99.90;;;;;;10383090;28;20219;-85
2022/06/05 06:00:26;;;;;;;22.57;20.70;;;19.20;99.90;;;;;;10361003;28;20712;-86
2022/06/05 06:05:31;;;;;;;19.83;18.30;;;19.10;99.90;;;;;;10382948;28;20269;-84
2022/06/05 06:10:33;;;;;;;19.97;18.30;;;19.10;99.90;;;;;;10378157;28;20191;-82
2022/06/05 06:15:37;;;;;;;17.50;16.20;;;19.00;99.90;;;;;;10398934;23;20218;-78
2022/06/05 06:20:39;;;;;;;17.70;16.40;;;18.80;99.90;;;;;;10399117;28;20701;-78
2022/06/05 06:25:42;;;;;;;17.47;16.17;;;18.80;99.90;;;;;;10407340;28;20682;-78
2022/06/05 06:30:46;;;;;;;16.17;14.80;;;18.60;99.90;;;;;;10396044;28;20273;-81
2022/06/05 06:35:48;;;;;;;16.60;15.30;;;18.40;99.90;;;;;;10409679;28;20222;-81
2022/06/05 06:40:57;;;;;;;17.10;15.70;;;18.30;99.90;;;;;;10403533;28;20256;-80
2022/06/05 06:46:01;;;;;;;18.47;17.20;;;18.20;99.90;;;;;;10414476;28;20202;-80
2022/06/05 06:51:05;;;;;;;15.03;13.93;;;18.20;99.90;;;;;;10408269;28;20198;-78
2022/06/05 06:56:08;;;;;;;15.30;14.30;;;18.10;99.90;;;;;;10400691;28;20203;-79
2022/06/05 07:01:12;;;;;;;14.47;12.97;;;18.20;99.90;;;;;;10408946;28;20214;-79
2022/06/05 07:06:15;;;;;;;14.13;13.03;;;18.20;99.90;;;;;;10400927;28;20190;-78
2022/06/05 07:11:19;;;;;;;13.03;12.03;;;18.20;99.90;;;;;;10401753;28;20567;-79
2022/06/05 07:16:22;;;;;;;10.93;10.10;;;18.30;99.90;;;;;;10399659;28;20223;-78
2022/06/05 07:21:26;;;;;;;11.70;10.80;;;18.30;99.90;;;;;;10417463;28;20276;-78
2022/06/05 07:26:31;;;;;;;12.40;11.60;;;18.40;99.90;;;;;;10405661;28;20659;-78
2022/06/05 07:31:35;;;;;;;13.03;11.83;;;18.40;99.90;;;;;;10421185;28;20404;-78
2022/06/05 07:36:38;;;;;;;11.17;10.37;;;18.40;99.90;;;;;;10415554;28;20198;-78
2022/06/05 07:41:40;;;;;;;9.90;9.20;;;18.30;99.90;;;;;;10417285;28;20218;-78
2022/06/05 07:46:43;;;;;;;10.60;9.90;;;18.40;99.90;;;;;;10418753;28;20697;-78
2022/06/05 07:57:07;;;;;;;8.43;7.63;;;18.50;99.90;;;;;;10421008;28;20196;-78
2022/06/05 08:02:15;;;;;;;8.40;7.83;;;18.60;99.90;;;;;;10415042;28;20602;-78
2022/06/05 08:07:21;;;;;;;10.03;9.30;;;18.60;99.90;;;;;;10417459;28;20205;-79
2022/06/05 08:12:25;;;;;;;8.97;8.13;;;18.80;99.90;;;;;;10417824;28;20229;-77
2022/06/05 08:17:31;;;;;;;8.47;7.77;;;18.90;99.90;;;;;;10418548;28;20202;-77
2022/06/05 08:22:34;;;;;;;8.43;7.93;;;19.00;99.90;;;;;;10421178;28;20623;-77
2022/06/05 08:27:37;;;;;;;8.63;7.80;;;19.10;99.90;;;;;;10417322;28;20194;-77
2022/06/05 08:32:40;;;;;;;7.80;7.30;;;19.30;99.90;;;;;;10405980;28;20218;-77
2022/06/05 08:43:24;;;;;;;5.73;5.33;;;20.10;99.90;;;;;;10412247;28;20315;-77
2022/06/05 08:48:31;;;;;;;4.77;4.50;;;20.60;99.90;;;;;;10374624;28;20206;-78
2022/06/05 08:53:44;;;;;;;4.70;4.30;;;20.90;99.90;;;;;;10407404;28;20708;-77
2022/06/05 08:58:50;;;;;;;5.03;4.63;;;21.30;99.90;;;;;;10410145;28;20293;-77
2022/06/05 09:04:02;;;;;;;4.40;4.10;;;21.90;99.90;;;;;;10406466;28;20308;-78
2022/06/05 09:09:11;;;;;;;3.50;3.20;;;22.80;99.90;;;;;;10413183;28;20212;-77
2022/06/05 09:14:20;;;;;;;4.53;2.80;;;23.20;99.90;;;;;;10412746;28;20253;-77
2022/06/05 09:19:29;;;;;;;3.67;3.03;;;23.40;99.90;;;;;;10408282;28;20233;-78
2022/06/05 09:24:40;;;;;;;3.10;2.90;;;23.50;99.90;;;;;;10409162;28;20232;-77
2022/06/05 09:29:50;;;;;;;3.17;2.80;;;23.80;99.90;;;;;;10410615;28;20353;-77
2022/06/05 09:34:57;;;;;;;2.80;2.50;;;23.90;99.90;;;;;;10408623;28;20280;-77
2022/06/05 09:40:04;;;;;;;2.83;2.00;;;23.80;99.90;;;;;;10392704;28;20228;-77
2022/06/05 09:45:22;;;;;;;2.80;2.27;;;23.90;99.90;;;;;;10407282;28;20240;-77
2022/06/05 09:50:27;;;;;;;2.93;2.23;;;23.90;99.90;;;;;;10407611;28;20190;-77
2022/06/05 09:55:47;;;;;;;2.90;2.20;;;23.80;99.90;;;;;;10402805;28;20220;-77
2022/06/05 10:00:50;;;;;;;2.20;2.00;;;23.50;99.90;;;;;;10404573;28;20205;-77
2022/06/05 10:06:25;;;;;;;2.20;1.67;;;23.50;99.90;;;;;;10398520;28;20232;-77
2022/06/05 10:11:37;;;;;;;4.00;1.73;;;23.90;99.90;;;;;;10406360;28;20252;-77
2022/06/05 10:16:47;;;;;;;1.97;1.77;;;24.30;99.90;;;;;;10407550;28;20206;-77
2022/06/05 10:22:00;;;;;;;3.27;1.90;;;24.90;99.90;;;;;;10409248;28;20313;-78
2022/06/05 10:27:04;;;;;;;1.80;1.70;;;24.90;99.90;;;;;;10409939;28;20198;-77
2022/06/05 10:32:14;;;;;;;2.83;2.00;;;24.80;99.90;;;;;;10403368;28;20245;-77
2022/06/05 10:37:23;;;;;;;3.57;3.27;;;24.50;99.90;;;;;;10405180;28;20209;-77
2022/06/05 10:42:38;;;;;;;5.93;5.23;;;24.20;99.90;;;;;;10402699;28;20586;-77
2022/06/05 10:47:44;;;;;;;3.43;3.13;;;23.80;99.90;;;;;;10408510;28;20194;-77
2022/06/05 10:52:53;;;;;;;12.13;7.00;;;23.40;99.90;;;;;;10408911;28;20329;-77
2022/06/05 10:58:05;;;;;;;6.93;6.43;;;22.70;99.90;;;;;;10404655;28;20209;-77
2022/06/05 11:03:14;;;;;;;7.40;6.80;;;22.10;99.90;;;;;;10401684;28;20233;-77
2022/06/05 11:08:29;;;;;;;7.50;6.80;;;21.60;99.90;;;;;;10406754;28;20194;-77
2022/06/05 11:13:42;;;;;;;7.67;7.07;;;21.30;99.90;;;;;;10407485;28;20232;-80
2022/06/05 11:18:50;;;;;;;7.77;7.17;;;20.90;99.90;;;;;;10409203;28;20194;-77
2022/06/05 11:23:57;;;;;;;6.80;6.20;;;20.70;99.90;;;;;;10397698;28;20230;-77
2022/06/05 11:29:12;;;;;;;7.43;6.77;;;20.60;99.90;;;;;;10393892;28;20194;-77
2022/06/05 11:34:27;;;;;;;6.80;6.30;;;20.50;99.90;;;;;;10398782;28;20293;-77
2022/06/05 11:39:40;;;;;;;6.47;6.00;;;20.50;99.90;;;;;;10407832;28;20209;-77
2022/06/05 11:44:49;;;;;;;6.60;6.10;;;20.60;99.90;;;;;;10408587;28;20236;-78
2022/06/05 11:50:01;;;;;;;6.03;5.63;;;20.80;99.90;;;;;;10391344;28;20603;-77
2022/06/05 11:55:10;;;;;;;6.13;5.60;;;21.00;99.90;;;;;;10397534;28;20301;-77
2022/06/05 12:00:16;;;;;;;8.83;5.80;;;21.50;99.90;;;;;;10406413;28;20689;-77
2022/06/05 12:05:26;;;;;;;4.80;4.50;;;21.70;99.90;;;;;;10404874;28;20331;-77
2022/06/05 12:10:33;;;;;;;4.83;4.50;;;22.00;99.90;;;;;;10415539;28;20229;-77
2022/06/05 12:15:56;;;;;;;5.10;4.70;;;22.30;99.90;;;;;;10410726;28;20314;-77
2022/06/05 12:21:09;;;;;;;5.07;4.27;;;22.60;99.90;;;;;;10410993;28;20289;-77
2022/06/05 12:26:22;;;;;;;4.83;3.20;;;22.80;99.90;;;;;;10396298;28;20230;-77
2022/06/05 12:31:27;;;;;;;3.70;3.23;;;23.00;99.90;;;;;;10411175;28;20313;-77
2022/06/05 12:36:35;;;;;;;3.50;3.20;;;23.10;99.90;;;;;;10409298;28;20593;-77
2022/06/05 12:41:48;;;;;;;5.00;2.90;;;23.20;99.90;;;;;;10413790;28;20624;-77
2022/06/05 12:46:58;;;;;;;3.30;3.00;;;23.20;99.90;;;;;;10410798;28;20714;-77
2022/06/05 12:52:24;;;;;;;4.83;3.63;;;23.20;99.90;;;;;;10412461;28;20561;-77
2022/06/05 12:57:32;;;;;;;3.87;3.40;;;23.10;99.90;;;;;;10407645;28;20690;-77
2022/06/05 13:02:40;;;;;;;3.47;3.17;;;23.00;99.90;;;;;;10409039;28;20218;-77
2022/06/05 13:07:48;;;;;;;3.23;3.03;;;22.90;99.90;;;;;;10410175;28;20554;-77
2022/06/05 13:13:00;;;;;;;4.10;2.90;;;23.00;99.90;;;;;;10411147;28;20620;-77
2022/06/05 13:18:13;;;;;;;2.67;2.47;;;23.10;99.90;;;;;;10412304;28;20271;-77
2022/06/05 13:23:25;;;;;;;3.03;2.73;;;23.10;99.90;;;;;;10407648;28;20253;-77
2022/06/05 13:28:40;;;;;;;5.00;3.23;;;23.10;99.90;;;;;;10406759;28;20649;-77
2022/06/05 13:33:48;;;;;;;2.33;2.13;;;23.30;99.90;;;;;;10407099;28;20701;-77
2022/06/05 13:38:56;;;;;;;2.73;2.53;;;23.30;99.90;;;;;;10409785;28;20208;-77
2022/06/05 13:44:04;;;;;;;3.10;2.80;;;23.40;99.90;;;;;;10412419;28;20243;-77
2022/06/05 13:49:24;;;;;;;4.60;3.03;;;23.50;99.90;;;;;;10407547;28;20213;-77
2022/06/05 13:54:35;;;;;;;4.83;3.00;;;23.60;99.90;;;;;;10398251;28;20218;-77
2022/06/05 13:59:44;;;;;;;3.03;2.77;;;23.80;99.90;;;;;;10397092;28;20516;-77
2022/06/05 14:04:59;;;;;;;3.03;2.73;;;24.00;99.90;;;;;;10404994;28;20279;-77
2022/06/05 14:10:12;;;;;;;6.13;2.97;;;24.30;99.90;;;;;;10411133;28;20531;-77
2022/06/05 14:15:25;;;;;;;3.60;2.50;;;24.30;99.90;;;;;;10405687;28;20221;-77
2022/06/05 14:20:32;;;;;;;2.90;2.70;;;24.40;99.90;;;;;;10407183;28;20319;-77
2022/06/05 14:25:41;;;;;;;3.47;2.73;;;24.30;99.90;;;;;;10402619;28;20599;-77
2022/06/05 14:30:54;;;;;;;2.50;2.30;;;24.40;99.90;;;;;;10402041;28;20237;-77
2022/06/05 14:35:57;;;;;;;2.90;2.70;;;24.30;99.90;;;;;;10409992;28;20222;-77
2022/06/05 14:41:08;;;;;;;2.50;2.30;;;24.20;99.90;;;;;;10405419;28;20554;-77
2022/06/05 14:46:25;;;;;;;2.80;2.60;;;24.10;99.90;;;;;;10406363;28;20221;-77
2022/06/05 14:51:36;;;;;;;2.33;2.10;;;24.00;99.90;;;;;;10407426;28;20709;-77
2022/06/05 15:02:20;;;;;;;2.40;2.30;;;23.70;99.90;;;;;;10396377;28;20697;-77
2022/06/05 15:07:27;;;;;;;3.10;2.67;;;23.60;99.90;;;;;;10404508;28;20206;-77
2022/06/05 15:12:37;;;;;;;1.50;1.40;;;23.50;99.90;;;;;;10404245;28;20229;-77
2022/06/05 15:17:45;;;;;;;2.90;2.73;;;23.50;99.90;;;;;;10406715;28;20662;-77
2022/06/05 15:23:00;;;;;;;3.30;3.00;;;23.50;99.90;;;;;;10408191;28;20233;-77
2022/06/05 15:28:06;;;;;;;4.40;3.50;;;23.30;99.90;;;;;;10401594;28;20262;-77
2022/06/05 15:33:18;;;;;;;5.03;4.63;;;23.20;99.90;;;;;;10398350;28;20239;-77
2022/06/05 15:38:42;;;;;;;2.93;2.73;;;23.30;99.90;;;;;;10405707;28;20673;-77
2022/06/05 15:43:57;;;;;;;2.77;2.63;;;23.10;99.90;;;;;;10415173;28;20230;-77
2022/06/05 15:49:18;;;;;;;5.20;3.20;;;22.70;99.90;;;;;;10416431;28;20623;-77
2022/06/05 15:54:42;;;;;;;6.10;4.03;;;22.00;99.90;;;;;;10397529;28;20598;-76
2022/06/05 15:59:56;;;;;;;5.23;4.83;;;21.40;99.90;;;;;;10410088;28;20252;-76
2022/06/05 16:05:05;;;;;;;5.20;4.80;;;20.90;99.90;;;;;;10400841;28;20222;-77
2022/06/05 16:10:16;;;;;;;4.57;4.27;;;20.60;99.90;;;;;;10416119;28;20285;-77
2022/06/05 16:15:27;;;;;;;4.03;3.70;;;20.50;99.90;;;;;;10411685;28;20562;-77
2022/06/05 16:20:47;;;;;;;4.57;4.27;;;20.40;99.90;;;;;;10399040;28;20201;-77
2022/06/05 16:25:57;;;;;;;5.53;4.90;;;20.30;99.90;;;;;;10412609;28;20741;-77
2022/06/05 16:31:20;;;;;;;4.27;3.97;;;20.30;99.90;;;;;;10414329;28;20226;-77
2022/06/05 16:42:18;;;;;;;4.60;4.27;;;20.60;99.90;;;;;;10409570;28;20363;-77
2022/06/05 16:47:47;;;;;;;3.90;3.60;;;20.70;99.90;;;;;;10411362;28;20200;-77
2022/06/05 16:52:51;;;;;;;3.87;3.67;;;20.80;99.90;;;;;;10401323;28;20224;-77
2022/06/05 16:57:55;;;;;;;4.53;4.23;;;20.90;99.90;;;;;;10413117;28;20202;-77
2022/06/05 17:03:30;;;;;;;4.23;3.93;;;21.00;99.90;;;;;;10413954;28;20701;-77
2022/06/05 17:08:48;;;;;;;3.80;3.60;;;21.10;99.90;;;;;;10407344;28;20288;-77
2022/06/05 17:13:50;;;;;;;3.40;3.20;;;21.10;99.90;;;;;;10409399;28;20272;-77
2022/06/05 17:18:55;;;;;;;3.33;3.23;;;21.00;99.90;;;;;;10410395;28;20233;-76
2022/06/05 17:24:20;;;;;;;4.27;4.07;;;21.10;99.90;;;;;;10411102;28;20221;-76
2022/06/05 17:29:33;;;;;;;3.83;3.63;;;21.20;99.90;;;;;;10406851;28;20206;-77
2022/06/05 17:34:53;;;;;;;4.60;4.20;;;21.10;99.90;;;;;;10399886;28;20623;-77
2022/06/05 17:40:22;;;;;;;3.13;3.00;;;21.20;99.90;;;;;;10401382;28;20288;-77
2022/06/05 17:45:39;;;;;;;3.10;3.00;;;21.20;99.90;;;;;;10402329;28;20230;-77
2022/06/05 17:50:49;;;;;;;3.40;3.20;;;21.30;99.90;;;;;;10411690;28;20209;-77
2022/06/05 17:55:54;;;;;;;3.63;3.37;;;21.30;99.90;;;;;;10405902;28;20210;-77
2022/06/05 18:01:01;;;;;;;3.60;3.40;;;21.30;99.90;;;;;;10394367;28;20288;-77
2022/06/05 18:06:07;;;;;;;3.00;2.90;;;21.30;99.90;;;;;;10401947;28;20282;-77
2022/06/05 18:11:15;;;;;;;9.20;8.50;;;21.20;99.90;;;;;;10408478;28;20202;-77
2022/06/05 18:16:21;;;;;;;3.93;3.73;;;21.10;99.90;;;;;;10432634;22;20500;-79
2022/06/05 18:21:29;;;;;;;3.40;3.20;;;20.90;99.90;;;;;;10414353;28;20204;-79
2022/06/05 18:26:55;;;;;;;3.20;3.00;;;20.80;99.90;;;;;;10372225;28;20237;-79
2022/06/05 18:32:03;;;;;;;2.13;2.03;;;20.80;99.90;;;;;;10365935;28;20260;-78
2022/06/05 18:42:37;;;;;;;2.47;2.37;;;20.60;99.90;;;;;;10367991;28;20221;-79
2022/06/05 18:47:43;;;;;;;2.90;2.60;;;20.50;99.90;;;;;;10365336;28;20592;-78
2022/06/05 18:52:46;;;;;;;2.57;2.47;;;20.40;99.90;;;;;;10367767;28;20704;-78
2022/06/05 18:57:50;;;;;;;4.27;2.60;;;20.30;99.90;;;;;;10364550;28;20250;-79
2022/06/05 19:02:54;;;;;;;3.23;3.03;;;20.30;99.90;;;;;;10376263;28;20219;-79
2022/06/05 19:07:56;;;;;;;2.83;2.73;;;20.30;99.90;;;;;;10372788;28;20203;-79
2022/06/05 19:13:03;;;;;;;2.60;2.40;;;20.30;99.90;;;;;;10370534;28;20237;-78
2022/06/05 19:18:16;;;;;;;4.50;2.57;;;20.20;99.90;;;;;;10372757;28;20199;-78
2022/06/05 19:23:29;;;;;;;2.47;2.37;;;19.90;99.90;;;;;;10375795;28;20297;-79
2022/06/05 19:28:37;;;;;;;2.73;2.63;;;19.60;99.90;;;;;;10376967;28;20690;-78
2022/06/05 19:33:39;;;;;;;2.77;2.67;;;19.30;99.90;;;;;;10371416;28;20660;-79
2022/06/05 19:38:42;;;;;;;2.93;2.60;;;18.90;99.90;;;;;;10352292;28;20671;-78
2022/06/05 19:44:03;;;;;;;2.50;2.40;;;18.60;99.90;;;;;;10373472;28;20294;-79
2022/06/05 19:49:14;;;;;;;2.43;2.33;;;18.50;99.90;;;;;;10359952;28;20230;-78
2022/06/05 19:54:24;;;;;;;2.87;2.67;;;18.60;99.90;;;;;;10369482;28;20273;-79
2022/06/05 19:59:30;;;;;;;3.40;2.27;;;18.50;99.90;;;;;;10371810;28;20234;-79
2022/06/05 20:04:37;;;;;;;3.03;2.27;;;18.60;99.90;;;;;;10369535;28;20229;-78
2022/06/05 20:09:47;;;;;;;2.90;2.70;;;18.60;99.90;;;;;;10372431;28;20241;-78
2022/06/05 20:14:59;;;;;;;3.63;3.33;;;18.50;99.90;;;;;;10381694;28;20241;-78
2022/06/05 20:20:12;;;;;;;2.50;2.40;;;18.50;99.90;;;;;;10380736;28;20257;-78
2022/06/05 20:25:33;;;;;;;2.67;2.47;;;18.50;99.90;;;;;;10375398;28;20242;-78
2022/06/05 20:30:46;;;;;;;3.43;3.23;;;18.50;99.90;;;;;;10385745;28;20724;-78
2022/06/05 20:36:04;;;;;;;3.03;2.80;;;18.50;99.90;;;;;;10388800;28;20276;-78
2022/06/05 20:41:10;;;;;;;2.83;2.73;;;18.50;99.90;;;;;;10380279;28;20230;-78
2022/06/05 20:46:21;;;;;;;3.97;2.70;;;18.50;99.90;;;;;;10372971;28;20759;-78
2022/06/05 20:51:23;;;;;;;3.00;2.80;;;18.50;99.90;;;;;;10374283;28;20284;-78
2022/06/05 20:56:31;;;;;;;2.80;2.70;;;18.50;99.90;;;;;;10393024;28;20222;-78
2022/06/05 21:01:40;;;;;;;2.50;2.40;;;18.60;99.90;;;;;;10376899;28;20207;-78
2022/06/05 21:17:27;;;;;;;2.60;2.50;;;18.70;99.90;;;;;;10375574;28;20222;-78
2022/06/05 21:22:32;;;;;;;2.83;2.73;;;18.60;99.90;;;;;;10374682;28;20646;-78
2022/06/05 21:27:37;;;;;;;3.73;2.93;;;18.60;99.90;;;;;;10372073;28;20222;-78
2022/06/05 21:32:43;;;;;;;3.07;2.93;;;18.60;99.90;;;;;;10375473;28;20222;-78
2022/06/05 21:37:50;;;;;;;2.57;2.47;;;18.60;99.90;;;;;;10361849;28;20291;-79
2022/06/05 21:42:55;;;;;;;2.50;2.40;;;18.60;99.90;;;;;;10368308;28;20258;-78
2022/06/05 21:47:58;;;;;;;2.90;2.70;;;18.60;99.90;;;;;;10370056;28;20277;-78
2022/06/05 21:53:01;;;;;;;3.00;2.90;;;18.60;99.90;;;;;;10370024;28;20682;-78
2022/06/05 21:58:08;;;;;;;3.03;2.93;;;18.50;99.90;;;;;;10372708;28;20242;-78
2022/06/05 22:03:16;;;;;;;3.77;3.57;;;18.40;99.90;;;;;;10382220;28;20218;-78
2022/06/05 22:08:18;;;;;;;3.40;3.10;;;18.30;99.90;;;;;;10368487;28;20245;-78
2022/06/05 22:13:26;;;;;;;4.13;3.53;;;18.20;99.90;;;;;;10374483;28;20594;-78
2022/06/05 22:18:30;;;;;;;8.33;3.83;;;18.30;99.90;;;;;;10371840;28;20205;-78
2022/06/05 22:23:32;;;;;;;3.40;3.20;;;18.20;99.90;;;;;;10358822;28;21260;-78
2022/06/05 22:28:34;;;;;;;4.17;3.73;;;18.20;99.90;;;;;;10359767;28;20640;-78
2022/06/05 22:33:37;;;;;;;3.40;3.20;;;18.30;99.90;;;;;;10368571;28;20582;-78
2022/06/05 22:38:40;;;;;;;3.80;3.50;;;18.30;99.90;;;;;;10355460;28;20200;-78
2022/06/05 22:43:42;;;;;;;3.30;3.10;;;18.30;99.90;;;;;;10369594;28;20745;-78
2022/06/05 22:48:45;;;;;;;3.73;3.47;;;18.20;99.90;;;;;;10346112;28;20655;-78
2022/06/05 22:53:48;;;;;;;3.33;3.03;;;18.20;99.90;;;;;;10359657;28;20222;-79
2022/06/05 22:58:50;;;;;;;4.10;3.80;;;18.10;99.90;;;;;;10379512;28;20253;-78
2022/06/05 23:03:54;;;;;;;3.20;3.00;;;18.10;99.90;;;;;;10380344;28;20261;-78
2022/06/05 23:08:56;;;;;;;3.60;3.30;;;18.00;99.90;;;;;;10369749;28;20199;-78
2022/06/05 23:13:59;;;;;;;3.60;3.40;;;18.00;99.90;;;;;;10355841;28;20222;-78
2022/06/05 23:24:35;;;;;;;3.67;3.47;;;18.10;99.90;;;;;;10290260;28;20765;-78
2022/06/05 23:29:37;;;;;;;3.70;3.40;;;18.10;99.90;;;;;;10361786;28;20872;-78
2022/06/05 23:34:44;;;;;;;3.87;3.63;;;18.20;99.90;;;;;;10369608;28;20297;-78
2022/06/05 23:39:46;;;;;;;3.60;3.20;;;18.20;99.90;;;;;;10356454;28;20240;-78
2022/06/05 23:44:49;;;;;;;3.07;2.97;;;18.10;99.90;;;;;;10365190;28;20675;-78
2022/06/05 23:49:53;;;;;;;3.40;3.20;;;18.20;99.90;;;;;;10365206;28;20261;-78
2022/06/05 23:54:55;;;;;;;3.70;3.50;;;18.20;99.90;;;;;;10360283;28;20210;-79
2022/06/05 23:59:57;;;;;;;4.27;3.97;;;18.30;99.90;;;;;;10369795;28;20316;-79
